createdAt,value
2023-02-22T00:02:13.327Z,2.10
2023-02-22T00:07:20.866Z,2.27
2023-02-22T00:12:27.337Z,1.60
2023-02-22T00:17:32.732Z,2.40
2023-02-22T00:22:38.282Z,3.40
2023-02-22T00:27:43.594Z,2.47
2023-02-22T00:32:49.973Z,2.57
2023-02-22T00:37:57.957Z,2.00
2023-02-22T00:43:05.319Z,2.03
2023-02-22T00:48:11.840Z,2.43
2023-02-22T00:53:17.781Z,1.87
2023-02-22T00:58:24.742Z,1.33
2023-02-22T01:03:32.100Z,1.37
2023-02-22T01:08:37.871Z,1.43
2023-02-22T01:13:44.774Z,2.20
2023-02-22T01:18:49.979Z,2.23
2023-02-22T01:23:55.299Z,2.57
2023-02-22T01:29:02.283Z,1.13
2023-02-22T01:34:07.472Z,2.77
2023-02-22T01:39:12.657Z,1.60
2023-02-22T01:44:35.684Z,1.40
2023-02-22T01:49:46.710Z,1.73
2023-02-22T01:54:55.036Z,1.40
2023-02-22T02:00:04.847Z,2.37
2023-02-22T02:05:11.310Z,3.30
2023-02-22T02:10:17.497Z,3.17
2023-02-22T02:15:34.467Z,2.47
2023-02-22T02:21:04.981Z,1.77
2023-02-22T02:26:31.344Z,1.73
2023-02-22T02:32:08.438Z,1.80
2023-02-22T02:37:42.058Z,2.20
2023-02-22T02:42:55.938Z,2.17
2023-02-22T02:48:03.653Z,2.07
2023-02-22T02:53:10.924Z,1.20
2023-02-22T02:58:21.876Z,2.20
2023-02-22T03:03:37.529Z,1.40
2023-02-22T03:09:05.394Z,2.47
2023-02-22T03:14:25.553Z,2.27
2023-02-22T03:19:36.646Z,2.57
2023-02-22T03:24:52.203Z,1.83
2023-02-22T03:30:00.513Z,2.10
2023-02-22T03:35:11.488Z,2.70
2023-02-22T03:40:21.306Z,2.20
2023-02-22T03:45:28.837Z,3.80
2023-02-22T03:50:54.935Z,3.30
2023-02-22T03:56:01.707Z,2.17
2023-02-22T04:01:07.481Z,2.70
2023-02-22T04:12:42.083Z,2.93
2023-02-22T04:17:47.955Z,3.67
2023-02-22T04:22:54.695Z,3.47
2023-02-22T04:27:59.967Z,1.80
2023-02-22T04:33:05.232Z,1.77
2023-02-22T04:38:10.417Z,2.17
2023-02-22T04:43:15.785Z,2.03
2023-02-22T04:48:21.308Z,1.13
2023-02-22T04:53:26.455Z,1.87
2023-02-22T04:58:31.953Z,1.80
2023-02-22T05:03:39.188Z,1.70
2023-02-22T05:08:44.365Z,2.00
2023-02-22T05:13:50.138Z,3.13
2023-02-22T05:18:56.094Z,2.77
2023-02-22T05:24:02.642Z,3.20
2023-02-22T05:29:08.652Z,2.67
2023-02-22T05:34:14.690Z,2.53
2023-02-22T05:39:20.072Z,2.60
2023-02-22T05:44:32.430Z,3.17
2023-02-22T05:49:39.083Z,4.37
2023-02-22T05:54:44.537Z,5.97
2023-02-22T05:59:52.114Z,5.57
2023-02-22T06:04:57.239Z,5.13
2023-02-22T06:10:02.443Z,4.43
2023-02-22T06:15:08.643Z,6.53
2023-02-22T06:20:17.426Z,5.33
2023-02-22T06:25:25.704Z,5.63
2023-02-22T06:30:34.540Z,5.50
2023-02-22T06:35:39.849Z,5.93
2023-02-22T06:40:45.542Z,5.33
2023-02-22T06:45:50.974Z,5.93
2023-02-22T06:50:56.272Z,5.70
2023-02-22T06:56:02.520Z,5.77
2023-02-22T07:01:08.163Z,6.30
2023-02-22T07:06:13.617Z,14.27
2023-02-22T07:11:19.143Z,11.23
2023-02-22T07:16:25.296Z,17.27
2023-02-22T07:21:31.481Z,8.83
2023-02-22T07:26:43.514Z,6.90
2023-02-22T07:31:48.699Z,7.90
2023-02-22T07:36:53.973Z,4.40
2023-02-22T07:41:59.642Z,3.77
2023-02-22T07:47:04.839Z,3.97
2023-02-22T07:52:10.098Z,4.63
2023-02-22T07:57:16.357Z,4.70
2023-02-22T08:02:22.302Z,4.53
2023-02-22T08:07:27.841Z,5.93
2023-02-22T08:12:36.584Z,3.80
2023-02-22T08:17:45.896Z,3.83
2023-02-22T08:22:52.836Z,2.53
2023-02-22T08:28:04.911Z,3.37
2023-02-22T08:33:11.142Z,2.90
2023-02-22T08:38:25.553Z,2.90
2023-02-22T08:43:30.917Z,2.60
2023-02-22T08:48:36.294Z,2.97
2023-02-22T08:53:41.725Z,3.50
2023-02-22T08:58:47.207Z,2.77
2023-02-22T09:03:53.056Z,1.93
2023-02-22T09:08:58.470Z,2.60
2023-02-22T09:14:03.947Z,1.20
2023-02-22T09:19:11.049Z,1.30
2023-02-22T09:24:16.453Z,1.97
2023-02-22T09:29:24.609Z,1.03
2023-02-22T09:34:34.683Z,0.93
2023-02-22T09:39:40.220Z,1.40
2023-02-22T09:44:52.749Z,0.77
2023-02-22T09:50:14.647Z,1.10
2023-02-22T09:55:38.001Z,3.73
2023-02-22T10:00:46.194Z,0.97
2023-02-22T10:06:00.504Z,3.87
2023-02-22T10:11:16.547Z,4.33
2023-02-22T10:16:42.376Z,1.00
2023-02-22T10:22:11.182Z,1.27
2023-02-22T10:27:26.490Z,1.50
2023-02-22T10:32:35.791Z,1.20
2023-02-22T10:37:42.198Z,3.63
2023-02-22T10:42:47.690Z,1.53
2023-02-22T10:47:56.279Z,0.90
2023-02-22T10:53:01.548Z,1.73
2023-02-22T10:58:11.010Z,4.20
2023-02-22T11:03:19.309Z,1.83
2023-02-22T11:08:30.888Z,1.07
2023-02-22T11:13:40.900Z,1.67
2023-02-22T11:18:47.389Z,1.27
2023-02-22T11:23:55.813Z,1.67
2023-02-22T11:29:03.127Z,1.47
2023-02-22T11:34:08.413Z,1.20
2023-02-22T11:39:26.138Z,1.10
2023-02-22T11:44:33.381Z,1.20
2023-02-22T11:49:41.735Z,1.70
2023-02-22T11:54:58.604Z,1.80
2023-02-22T12:00:14.314Z,0.90
2023-02-22T12:05:33.068Z,1.07
2023-02-22T12:10:47.272Z,1.27
2023-02-22T12:16:10.799Z,1.30
2023-02-22T12:21:19.009Z,0.80
2023-02-22T12:26:30.704Z,1.27
2023-02-22T12:32:01.189Z,1.20
2023-02-22T12:37:24.620Z,1.17
2023-02-22T12:42:35.812Z,1.27
2023-02-22T12:47:44.047Z,0.80
2023-02-22T12:53:04.386Z,2.83
2023-02-22T12:58:27.682Z,1.30
2023-02-22T13:03:41.014Z,1.20
2023-02-22T13:09:10.000Z,1.20
2023-02-22T13:14:21.024Z,1.80
2023-02-22T13:19:40.945Z,1.00
2023-02-22T13:24:59.268Z,1.20
2023-02-22T13:30:07.322Z,1.53
2023-02-22T13:35:35.988Z,1.23
2023-02-22T13:40:59.164Z,1.20
2023-02-22T13:46:20.101Z,1.13
2023-02-22T13:51:58.738Z,1.43
2023-02-22T13:57:04.904Z,1.37
2023-02-22T14:02:13.080Z,1.50
2023-02-22T14:07:28.582Z,1.00
2023-02-22T14:12:39.520Z,1.83
2023-02-22T14:18:01.122Z,1.43
2023-02-22T14:23:30.094Z,1.87
2023-02-22T14:28:47.126Z,1.27
2023-02-22T14:34:01.180Z,2.50
2023-02-22T14:39:27.311Z,2.00
2023-02-22T14:44:38.080Z,1.40
2023-02-22T14:49:46.323Z,1.20
2023-02-22T14:55:06.793Z,1.30
2023-02-22T15:00:32.498Z,1.90
2023-02-22T15:05:39.155Z,1.93
2023-02-22T15:10:50.948Z,1.50
2023-02-22T15:16:01.338Z,1.70
2023-02-22T15:21:20.940Z,1.50
2023-02-22T15:26:42.457Z,1.97
2023-02-22T15:31:48.218Z,2.00
2023-02-22T15:36:56.354Z,2.83
2023-02-22T15:42:11.168Z,2.37
2023-02-22T15:47:22.069Z,1.40
2023-02-22T15:52:28.492Z,1.67
2023-02-22T15:57:35.693Z,3.90
2023-02-22T16:02:42.654Z,31.90
2023-02-22T16:07:50.681Z,30.90
2023-02-22T16:13:19.060Z,7.13
2023-02-22T16:18:30.952Z,2.00
2023-02-22T16:23:45.091Z,1.20
2023-02-22T16:28:56.405Z,1.40
2023-02-22T16:34:03.138Z,1.30
2023-02-22T16:39:10.788Z,1.43
2023-02-22T16:44:17.505Z,7.63
2023-02-22T16:49:23.588Z,6.40
2023-02-22T16:54:33.527Z,65.47
2023-02-22T16:59:40.693Z,65.03
2023-02-22T17:04:50.728Z,82.30
2023-02-22T17:09:57.482Z,12.27
2023-02-22T17:15:04.129Z,8.67
2023-02-22T17:20:12.507Z,6.70
2023-02-22T17:25:26.703Z,5.90
2023-02-22T17:30:33.074Z,7.47
2023-02-22T17:35:41.323Z,4.30
2023-02-22T17:40:48.336Z,2.67
2023-02-22T17:45:54.726Z,3.80
2023-02-22T17:50:59.875Z,2.87
2023-02-22T17:56:10.551Z,2.03
2023-02-22T18:01:27.792Z,2.50
2023-02-22T18:06:33.722Z,2.40
2023-02-22T18:11:39.916Z,2.50
2023-02-22T18:16:46.893Z,1.97
2023-02-22T18:21:52.751Z,1.67
2023-02-22T18:26:58.789Z,2.17
2023-02-22T18:32:03.989Z,1.27
2023-02-22T18:37:09.052Z,1.30
2023-02-22T18:42:15.537Z,1.97
2023-02-22T18:47:22.984Z,1.93
2023-02-22T18:52:29.773Z,2.50
2023-02-22T18:57:36.349Z,2.30
2023-02-22T19:02:43.385Z,1.63
2023-02-22T19:07:48.752Z,2.47
2023-02-22T19:12:53.988Z,4.40
2023-02-22T19:17:59.191Z,4.07
2023-02-22T19:23:04.404Z,4.03
2023-02-22T19:28:10.300Z,10.50
2023-02-22T19:33:15.565Z,2.80
2023-02-22T19:38:31.295Z,3.40
2023-02-22T19:43:37.933Z,4.03
2023-02-22T19:48:43.742Z,2.13
2023-02-22T19:53:48.866Z,2.20
2023-02-22T19:58:56.149Z,3.77
2023-02-22T20:04:10.044Z,4.13
2023-02-22T20:09:26.646Z,1.97
2023-02-22T20:14:33.766Z,3.50
2023-02-22T20:19:40.964Z,2.33
2023-02-22T20:24:47.894Z,5.80
2023-02-22T20:29:53.271Z,5.20
2023-02-22T20:34:58.548Z,3.40
2023-02-22T20:40:05.204Z,5.07
2023-02-22T20:45:12.013Z,3.77
2023-02-22T20:50:18.087Z,5.33
2023-02-22T20:55:23.303Z,3.70
2023-02-22T21:00:29.440Z,4.27
2023-02-22T21:05:34.681Z,3.03
2023-02-22T21:10:44.859Z,2.37
2023-02-22T21:15:51.982Z,2.00
2023-02-22T21:20:57.223Z,0.90
2023-02-22T21:26:02.406Z,2.40
2023-02-22T21:31:13.008Z,2.07
2023-02-22T21:36:18.964Z,2.33
2023-02-22T21:41:27.843Z,3.30
2023-02-22T21:46:33.469Z,3.80
2023-02-22T21:51:39.613Z,2.03
2023-02-22T21:56:44.871Z,1.83
2023-02-22T22:01:54.416Z,2.47
2023-02-22T22:07:03.677Z,1.37
2023-02-22T22:12:10.185Z,2.20
2023-02-22T22:17:15.788Z,1.63
2023-02-22T22:22:21.033Z,1.90
2023-02-22T22:27:26.108Z,2.03
2023-02-22T22:32:31.669Z,2.17
2023-02-22T22:37:36.931Z,3.03
2023-02-22T22:42:45.440Z,2.63
2023-02-22T22:47:50.584Z,2.23
2023-02-22T22:52:58.661Z,2.37
2023-02-22T22:58:03.832Z,2.77
2023-02-22T23:03:11.991Z,1.80
2023-02-22T23:08:17.209Z,2.03
2023-02-22T23:13:22.356Z,2.20
2023-02-22T23:18:27.562Z,2.37
2023-02-22T23:23:33.459Z,1.50
2023-02-22T23:28:40.980Z,1.60
2023-02-22T23:33:51.595Z,3.63
2023-02-22T23:38:56.666Z,2.60
2023-02-22T23:44:01.776Z,2.80
2023-02-22T23:49:08.558Z,2.23
2023-02-22T23:54:17.126Z,2.43
2023-02-22T23:59:23.925Z,2.33
